Lower Mammoth Reservoir Meter




Date Total AC/FT (AF) CFS (cfs) KGPM (gpm) CFS (cfs) GPM (gpm)
09/01/2018 5,688.00 4.63 10.31 4,627.00
09/02/2018 5,703.00 3.05 6.79 3,046.00
09/03/2018 5,716.00 3.23 7.19 3,228.00
09/04/2018 5,733.00 4.32 9.62 4,317.00
09/05/2018 5,752.00 4.00 8.91 3,998.00
09/06/2018 5,772.00 5.79 12.90 5,788.00
09/07/2018 5,801.00 6.73 15.00 6,733.00
09/08/2018 5,801.00 6.73 15.00 6,733.00
09/09/2018 5,858.00 5.59 12.45 5,590.00
09/10/2018 5,877.00 3.24 7.23 3,243.00
09/11/2018 5,893.00 3.90 8.69 3,902.00
09/12/2018 5,910.00 3.77 8.39 3,765.00
09/13/2018 5,924.00 2.34 5.22 2,343.00
09/14/2018 5,932.00 1.62 3.61 1,622.00
09/15/2018 5,939.00 1.60 3.56 1,596.00
09/16/2018 5,946.00 1.27 2.84 1,274.00
09/17/2018 5,951.00 0.97 2.16 971.00
09/18/2018 5,956.00 1.63 3.63 1,630.00
09/19/2018 5,965.00 2.19 4.87 2,188.00
09/20/2018 5,976.00 2.62 5.83 2,615.00
09/21/2018 5,986.00 1.95 4.35 1,952.00
09/22/2018 5,996.00 2.50 5.58 2,503.00
09/23/2018 6,007.00 2.17 4.84 2,173.00
09/24/2018 6,015.00 1.64 3.66 1,643.00
09/25/2018 6,024.00 2.78 6.19 2,779.00
09/26/2018 6,040.00 4.22 9.40 4,220.00
09/27/2018 6,059.00 4.56 10.16 4,560.00
09/28/2018 6,080.00 4.83 10.75 4,826.00
09/29/2018 6,101.00 4.53 10.09 4,527.00
09/30/2018 6,119.00 4.01 8.93 4,009.00
Average 0.00 7.61
Maximum 15.00
Minimum 2.16
Total Volume (AF) 0.00 452.42